South Burlington, VT

1:39 AM EDT on June 02, 2015 (GMT -0400)
Burlington International | | Change Station
CLOSE
Current Station
Airport
Location: Burlington,
Elevation: 341 ft
Nearby Weather Stations

Elev 341 ft 44.47 °N, 73.15 °W | Updated 45 minutes ago

Overcast
Overcast
51 °F
Feels Like 51 °F
N
0
Wind Variable Wind from North

Today
High -- | Low -- °F
--% Chance of Precip.
Yesterday
High -- | Low -- °F
Precip. -- in
5:10 AM 8:30 PM
Full, 100% visible
Pressure 30.22 in
Visibility 10.0 miles
Clouds Overcast 3600 ft
Dew Point 44 °F
Humidity 77%
Rainfall 0.00 in
Snow Depth Not available.
UV 0 out of 12
Pollen .90 out of 12
Air Quality Not available.
Flu Activity Sporadic
METAR KBTV 020454Z 00000KT 10SM OVC036 11/07 A3021 RMK AO2 SLP233 T01060067 401330094 $

More Conditions Fewer Conditions

Pressure 30.22 in
Visibility 10.0 miles
Clouds Overcast 3600 ft
Dew Point 44 °F
Humidity 77%
Rainfall 0.00 in
Snow Depth Not available.
UV 0 out of 12
Pollen .90 out of 12
Air Quality Not available.
Flu Activity Sporadic
METAR KBTV 020454Z 00000KT 10SM OVC036 11/07 A3021 RMK AO2 SLP233 T01060067 401330094 $

More Conditions Fewer Conditions

10-Day Weather Forecast

Almanac

Astronomy

Jun. 02, 2015 Rise Set
Actual Time
Civil Twilight
Nautical Twilight
Astronomical Twilight
Moon
Length of Visible Light
Length of Day
Tomorrow will be .
, % of the Moon is Illuminated

Today's Extremes

State Highs State Lows

Community

WunderPhotos

Upload Photos

1,825,920 photos uploaded!

WunderBlogs® & News

Nearby

Air Quality

  Air Quality AQ Index Pollutant
Not available.

Snow Depth

Station Depth Elevation

Earthquake Activity

City Distance Mag. Time & Date
Minimum magnitude displayed is 2.5.

Coastal Water Temperatures

Place Temperature

Stations

Nearby Weather Stations

Station Location Temp. Windchill Dew Point Humidity Wind Precip. Elev Updated Type